National Weather Service Raw Text Product

Displaying AFOS PIL: TAFALO Received: 2017-11-15 03:26 UTC


550 
FTUS43 KDMX 150326 AAB
TAFALO
TAF AMD
KALO 150326Z 1503/1524 17008KT 2SM -DZ BR OVC004
     FM150700 20009KT 3SM BR VCSH OVC004
     FM151100 28010KT P6SM OVC007
     FM151300 30014G21KT P6SM BKN028=